Little Fort, Canada
Current Conditions -  °F | °C
As of 10:00 PM on Tuesday 27 Jan 2015 (Local Time) from CYKA Reporting Station
Drizzle Drizzle  
Wind Chill: 32°   Ceiling: 800
Heat Index: 36°   Visibility: 6mi
Dew Point: 34°   Wind: 5mph
Humidity: 93%   Direction: 290°WNW
Pressure: 30.16"   Gusts: NA
Location:  51.43°N, 120.2°W
Report Text: CYKA 280600Z 29004KT 6SM -DZ OVC008 02/01 A3016 RMK ST8 SLP231
Loading
Personal Weather Stations






























Interactive Weather Map New forecast layout! Learn more

10-Day Weather Forecast

Advertisements
Track Severe Weather on mobile